Weather at Herd Ranch Airport

Public forecast

Using degrees Fahrenheit for public forecast. Weather courtesy of forecast.io.

Closest aviation weather report (METAR) to Herd Ranch Airport

Closest report is Kimble County Airport, 27.7 nm (51.3 km) SE. Retrieved 2022/01/17 03:51 UTC (20 minutes ago):

KJCT 170351Z AUTO 26004KT 10SM CLR 03/M10 A3008 RMK AO2 SLP179 T00331100

Closest aviation forecast (TAF) to Herd Ranch Airport

Closest forecast is Kimble County Airport, 27.7 nm (51.3 km) SE. Retrieved 2022-01-17 00:34 UTC (4 hours ago):

TAF KJCT 162332Z 1700/1724 25006KT P6SM SKC FM170030 VRB03KT P6SM SKC FM171745 18006KT P6SM SKC